sensor_id;sensor_type;location;lat;lon;timestamp;pressure;altitude;pressure_sealevel;temperature;humidity
80509;BME280;69838;52.602;13.434;2023-06-26T00:00:26;101135.97;;;16.08;96.29
80509;BME280;69838;52.602;13.434;2023-06-26T00:01:11;101138.69;;;16.08;96.15
80509;BME280;69838;52.602;13.434;2023-06-26T00:01:56;101130.63;;;16.07;96.06
80509;BME280;69838;52.602;13.434;2023-06-26T00:02:41;101129.75;;;16.06;96.17
80509;BME280;69838;52.602;13.434;2023-06-26T00:03:27;101135.97;;;16.08;96.36
80509;BME280;69838;52.602;13.434;2023-06-26T00:04:13;101135.97;;;16.08;96.09
80509;BME280;69838;52.602;13.434;2023-06-26T00:04:59;101127.03;;;16.06;96.36
80509;BME280;69838;52.602;13.434;2023-06-26T00:05:47;101130.44;;;16.10;96.05
80509;BME280;69838;52.602;13.434;2023-06-26T00:06:32;101127.41;;;16.14;96.30
80509;BME280;69838;52.602;13.434;2023-06-26T00:07:17;101132.06;;;16.12;96.18
80509;BME280;69838;52.602;13.434;2023-06-26T00:08:03;101127.72;;;16.10;96.03
80509;BME280;69838;52.602;13.434;2023-06-26T00:08:48;101129.63;;;16.08;96.16
80509;BME280;69838;52.602;13.434;2023-06-26T00:09:33;101134.03;;;16.10;95.83
80509;BME280;69838;52.602;13.434;2023-06-26T00:10:19;101137.41;;;16.14;95.79
80509;BME280;69838;52.602;13.434;2023-06-26T00:11:04;101126.72;;;16.11;95.46
80509;BME280;69838;52.602;13.434;2023-06-26T00:11:50;101134.03;;;16.10;95.83
80509;BME280;69838;52.602;13.434;2023-06-26T00:12:35;101135.75;;;16.11;95.76
80509;BME280;69838;52.602;13.434;2023-06-26T00:13:21;101134.03;;;16.10;95.90
80509;BME280;69838;52.602;13.434;2023-06-26T00:14:07;101134.03;;;16.10;95.65
80509;BME280;69838;52.602;13.434;2023-06-26T00:14:52;101137.50;;;16.12;95.59
80509;BME280;69838;52.602;13.434;2023-06-26T00:15:37;101125.75;;;16.12;95.33
80509;BME280;69838;52.602;13.434;2023-06-26T00:16:23;101134.78;;;16.12;95.46
80509;BME280;69838;52.602;13.434;2023-06-26T00:17:08;101135.75;;;16.11;95.26
80509;BME280;69838;52.602;13.434;2023-06-26T00:17:53;101131.41;;;16.09;95.32
80509;BME280;69838;52.602;13.434;2023-06-26T00:18:38;101135.09;;;16.08;95.39
80509;BME280;69838;52.602;13.434;2023-06-26T00:19:24;101126.16;;;16.06;95.41
80509;BME280;69838;52.602;13.434;2023-06-26T00:20:09;101134.41;;;16.04;95.34
80509;BME280;69838;52.602;13.434;2023-06-26T00:20:54;101135.50;;;16.01;95.96
80509;BME280;69838;52.602;13.434;2023-06-26T00:21:39;101131.91;;;16.01;95.94
80509;BME280;69838;52.602;13.434;2023-06-26T00:22:25;101127.44;;;16.00;96.02
80509;BME280;69838;52.602;13.434;2023-06-26T00:23:12;101134.41;;;16.04;96.11
80509;BME280;69838;52.602;13.434;2023-06-26T00:23:58;101128.97;;;16.04;96.03
80509;BME280;69838;52.602;13.434;2023-06-26T00:24:43;101126.56;;;15.99;95.99
80509;BME280;69838;52.602;13.434;2023-06-26T00:25:29;101122.66;;;16.03;95.91
80509;BME280;69838;52.602;13.434;2023-06-26T00:26:15;101132.69;;;16.03;95.69
80509;BME280;69838;52.602;13.434;2023-06-26T00:27:00;101135.41;;;16.03;95.58
80509;BME280;69838;52.602;13.434;2023-06-26T00:27:45;101138.13;;;16.03;95.47
80509;BME280;69838;52.602;13.434;2023-06-26T00:28:31;101134.63;;;16.01;95.26
80509;BME280;69838;52.602;13.434;2023-06-26T00:29:16;101132.09;;;15.98;95.28
80509;BME280;69838;52.602;13.434;2023-06-26T00:30:01;101133.19;;;15.95;95.36
80509;BME280;69838;52.602;13.434;2023-06-26T00:30:46;101132.28;;;15.95;95.61
80509;BME280;69838;52.602;13.434;2023-06-26T00:31:32;101136.00;;;15.94;95.32
80509;BME280;69838;52.602;13.434;2023-06-26T00:32:17;101129.00;;;15.90;95.57
80509;BME280;69838;52.602;13.434;2023-06-26T00:33:02;101137.16;;;15.90;95.56
80509;BME280;69838;52.602;13.434;2023-06-26T00:33:47;101126.41;;;15.88;95.64
80509;BME280;69838;52.602;13.434;2023-06-26T00:34:33;101125.59;;;15.86;95.82
80509;BME280;69838;52.602;13.434;2023-06-26T00:35:18;101126.50;;;15.87;95.65
80509;BME280;69838;52.602;13.434;2023-06-26T00:36:04;101127.44;;;15.86;96.12
80509;BME280;69838;52.602;13.434;2023-06-26T00:36:49;101123.78;;;15.87;96.12
80509;BME280;69838;52.602;13.434;2023-06-26T00:37:34;101124.44;;;15.90;96.01
80509;BME280;69838;52.602;13.434;2023-06-26T00:38:19;101122.78;;;15.88;96.08
80509;BME280;69838;52.602;13.434;2023-06-26T00:39:05;101118.22;;;15.88;95.97
80509;BME280;69838;52.602;13.434;2023-06-26T00:39:50;101121.03;;;15.87;96.23
80509;BME280;69838;52.602;13.434;2023-06-26T00:40:35;101119.88;;;15.91;96.23
80509;BME280;69838;52.602;13.434;2023-06-26T00:41:21;101125.13;;;15.94;96.07
80509;BME280;69838;52.602;13.434;2023-06-26T00:42:06;101118.00;;;15.91;95.91
80509;BME280;69838;52.602;13.434;2023-06-26T00:42:51;101119.75;;;15.92;96.06
80509;BME280;69838;52.602;13.434;2023-06-26T00:43:37;101117.72;;;15.96;95.86
80509;BME280;69838;52.602;13.434;2023-06-26T00:44:22;101118.50;;;15.98;95.79
80509;BME280;69838;52.602;13.434;2023-06-26T00:45:07;101118.50;;;15.98;95.79
80509;BME280;69838;52.602;13.434;2023-06-26T00:45:53;101123.94;;;15.98;95.62
80509;BME280;69838;52.602;13.434;2023-06-26T00:46:38;101119.34;;;15.98;95.99
80509;BME280;69838;52.602;13.434;2023-06-26T00:47:23;101116.72;;;15.97;95.86
80509;BME280;69838;52.602;13.434;2023-06-26T00:48:10;101127.44;;;16.00;96.12
80509;BME280;69838;52.602;13.434;2023-06-26T00:48:59;101119.84;;;16.05;96.17
80509;BME280;69838;52.602;13.434;2023-06-26T00:49:44;101118.88;;;16.06;96.07
80509;BME280;69838;52.602;13.434;2023-06-26T00:50:30;101116.91;;;16.08;96.56
80509;BME280;69838;52.602;13.434;2023-06-26T00:51:15;101120.22;;;16.13;96.00
80509;BME280;69838;52.602;13.434;2023-06-26T00:52:00;101119.13;;;16.16;96.11
80509;BME280;69838;52.602;13.434;2023-06-26T00:52:46;101115.44;;;16.17;95.85
80509;BME280;69838;52.602;13.434;2023-06-26T00:53:32;101114.25;;;16.21;95.79
80509;BME280;69838;52.602;13.434;2023-06-26T00:54:18;101119.38;;;16.26;95.84
80509;BME280;69838;52.602;13.434;2023-06-26T00:55:05;101120.63;;;16.34;95.82
80509;BME280;69838;52.602;13.434;2023-06-26T00:55:51;101116.94;;;16.35;95.55
80509;BME280;69838;52.602;13.434;2023-06-26T00:56:36;101121.28;;;16.38;95.36
80509;BME280;69838;52.602;13.434;2023-06-26T00:57:22;101118.56;;;16.38;95.53
80509;BME280;69838;52.602;13.434;2023-06-26T00:58:07;101120.13;;;16.42;95.05
80509;BME280;69838;52.602;13.434;2023-06-26T00:58:52;101116.59;;;16.40;94.40
80509;BME280;69838;52.602;13.434;2023-06-26T00:59:37;101119.13;;;16.43;95.06
80509;BME280;69838;52.602;13.434;2023-06-26T01:00:23;101112.81;;;16.42;94.98
80509;BME280;69838;52.602;13.434;2023-06-26T01:01:08;101120.56;;;16.49;95.57
80509;BME280;69838;52.602;13.434;2023-06-26T01:01:53;101113.06;;;16.52;94.98
80509;BME280;69838;52.602;13.434;2023-06-26T01:02:39;101119.06;;;16.57;94.89
80509;BME280;69838;52.602;13.434;2023-06-26T01:03:25;101116.34;;;16.57;94.51
80509;BME280;69838;52.602;13.434;2023-06-26T01:04:10;101117.34;;;16.56;94.40
80509;BME280;69838;52.602;13.434;2023-06-26T01:05:02;101114.72;;;16.55;94.27
80509;BME280;69838;52.602;13.434;2023-06-26T01:05:52;101112.00;;;16.55;94.44
80509;BME280;69838;52.602;13.434;2023-06-26T01:06:39;101109.16;;;16.56;94.35
80509;BME280;69838;52.602;13.434;2023-06-26T01:07:24;101112.66;;;16.58;94.14
80509;BME280;69838;52.602;13.434;2023-06-26T01:08:11;101114.38;;;16.59;93.92
80509;BME280;69838;52.602;13.434;2023-06-26T01:08:58;101114.38;;;16.59;94.27
80509;BME280;69838;52.602;13.434;2023-06-26T01:09:46;101111.88;;;16.56;94.30
80509;BME280;69838;52.602;13.434;2023-06-26T01:10:32;101108.25;;;16.56;94.22
80509;BME280;69838;52.602;13.434;2023-06-26T01:11:18;101109.16;;;16.56;94.35
80509;BME280;69838;52.602;13.434;2023-06-26T01:12:04;101105.53;;;16.56;94.26
80509;BME280;69838;52.602;13.434;2023-06-26T01:12:49;101112.84;;;16.55;94.30
80509;BME280;69838;52.602;13.434;2023-06-26T01:13:35;101104.69;;;16.55;94.43
80509;BME280;69838;52.602;13.434;2023-06-26T01:14:21;101110.03;;;16.57;94.43
80509;BME280;69838;52.602;13.434;2023-06-26T01:15:07;101114.38;;;16.59;94.40
80509;BME280;69838;52.602;13.434;2023-06-26T01:15:52;101107.97;;;16.60;94.40
80509;BME280;69838;52.602;13.434;2023-06-26T01:16:39;101107.97;;;16.60;94.43
80509;BME280;69838;52.602;13.434;2023-06-26T01:17:26;101112.41;;;16.61;94.51
80509;BME280;69838;52.602;13.434;2023-06-26T01:18:16;101108.63;;;16.64;94.49
80509;BME280;69838;52.602;13.434;2023-06-26T01:19:02;101108.53;;;16.66;94.54
80509;BME280;69838;52.602;13.434;2023-06-26T01:19:53;101106.56;;;16.68;94.72
80509;BME280;69838;52.602;13.434;2023-06-26T01:20:40;101097.63;;;16.66;94.57
80509;BME280;69838;52.602;13.434;2023-06-26T01:21:26;101108.44;;;16.67;94.58
80509;BME280;69838;52.602;13.434;2023-06-26T01:22:37;101103.06;;;16.66;94.97
80509;BME280;69838;52.602;13.434;2023-06-26T01:23:34;101110.25;;;16.67;94.67
80509;BME280;69838;52.602;13.434;2023-06-26T01:24:23;101097.63;;;16.66;94.84
80509;BME280;69838;52.602;13.434;2023-06-26T01:25:29;101103.06;;;16.66;94.83
80509;BME280;69838;52.602;13.434;2023-06-26T01:26:26;101093.03;;;16.66;94.69
80509;BME280;69838;52.602;13.434;2023-06-26T01:27:12;101097.53;;;16.67;94.61
80509;BME280;69838;52.602;13.434;2023-06-26T01:27:58;101101.13;;;16.68;94.83
80509;BME280;69838;52.602;13.434;2023-06-26T01:28:44;101098.72;;;16.76;94.60
80509;BME280;69838;52.602;13.434;2023-06-26T01:29:30;101096.00;;;16.76;94.45
80509;BME280;69838;52.602;13.434;2023-06-26T01:30:18;101092.50;;;16.74;94.57
80509;BME280;69838;52.602;13.434;2023-06-26T01:31:05;101095.03;;;16.77;94.54
80509;BME280;69838;52.602;13.434;2023-06-26T01:31:51;101091.53;;;16.75;94.48
80509;BME280;69838;52.602;13.434;2023-06-26T01:32:36;101092.31;;;16.77;94.37
80509;BME280;69838;52.602;13.434;2023-06-26T01:33:22;101093.81;;;16.81;94.23
80509;BME280;69838;52.602;13.434;2023-06-26T01:34:08;101091.09;;;16.81;94.81
80509;BME280;69838;52.602;13.434;2023-06-26T01:34:53;101091.09;;;16.81;93.99
80509;BME280;69838;52.602;13.434;2023-06-26T01:35:39;101090.34;;;16.79;94.22
80509;BME280;69838;52.602;13.434;2023-06-26T01:36:25;101089.56;;;16.77;94.28
80509;BME280;69838;52.602;13.434;2023-06-26T01:37:10;101089.78;;;16.74;94.09
80509;BME280;69838;52.602;13.434;2023-06-26T01:38:20;101095.47;;;16.71;94.22
80509;BME280;69838;52.602;13.434;2023-06-26T01:39:06;101090.22;;;16.68;94.38
80509;BME280;69838;52.602;13.434;2023-06-26T01:39:51;101091.19;;;16.67;94.24
80509;BME280;69838;52.602;13.434;2023-06-26T01:40:36;101086.72;;;16.66;94.41
80509;BME280;69838;52.602;13.434;2023-06-26T01:41:21;101090.41;;;16.65;94.29
80509;BME280;69838;52.602;13.434;2023-06-26T01:42:07;101086.16;;;16.60;94.41
80509;BME280;69838;52.602;13.434;2023-06-26T01:42:53;101081.69;;;16.59;94.70
80509;BME280;69838;52.602;13.434;2023-06-26T01:44:47;101090.28;;;16.53;94.72
80509;BME280;69838;52.602;13.434;2023-06-26T01:45:32;101082.97;;;16.54;94.83
80509;BME280;69838;52.602;13.434;2023-06-26T01:46:39;101087.34;;;16.56;94.68
80509;BME280;69838;52.602;13.434;2023-06-26T01:47:28;101095.63;;;16.55;94.84
80509;BME280;69838;52.602;13.434;2023-06-26T01:48:19;101092.25;;;16.51;94.80
80509;BME280;69838;52.602;13.434;2023-06-26T01:49:24;101080.16;;;16.55;94.87
80509;BME280;69838;52.602;13.434;2023-06-26T01:50:17;101083.63;;;16.57;94.91
80509;BME280;69838;52.602;13.434;2023-06-26T01:51:03;101085.69;;;16.54;94.72
80509;BME280;69838;52.602;13.434;2023-06-26T01:51:55;101085.81;;;16.52;94.76
80509;BME280;69838;52.602;13.434;2023-06-26T01:52:52;101080.34;;;16.52;94.91
80509;BME280;69838;52.602;13.434;2023-06-26T01:53:41;101089.28;;;16.54;94.76
80509;BME280;69838;52.602;13.434;2023-06-26T01:54:30;101085.81;;;16.52;94.83
80509;BME280;69838;52.602;13.434;2023-06-26T01:55:21;101092.34;;;16.50;94.58
80509;BME280;69838;52.602;13.434;2023-06-26T01:56:13;101079.78;;;16.47;94.67
80509;BME280;69838;52.602;13.434;2023-06-26T01:56:59;101079.03;;;16.45;94.72
80509;BME280;69838;52.602;13.434;2023-06-26T01:57:45;101088.19;;;16.44;94.88
80509;BME280;69838;52.602;13.434;2023-06-26T01:58:31;101080.97;;;16.43;94.90
80509;BME280;69838;52.602;13.434;2023-06-26T01:59:19;101081.84;;;16.44;94.83
80509;BME280;69838;52.602;13.434;2023-06-26T02:00:06;101081.19;;;16.40;94.84
80509;BME280;69838;52.602;13.434;2023-06-26T02:00:55;101081.19;;;16.40;94.82
80509;BME280;69838;52.602;13.434;2023-06-26T02:01:40;101081.06;;;16.41;94.86
80509;BME280;69838;52.602;13.434;2023-06-26T02:02:25;101080.97;;;16.43;95.17
80509;BME280;69838;52.602;13.434;2023-06-26T02:03:13;101075.53;;;16.43;95.20
80509;BME280;69838;52.602;13.434;2023-06-26T02:03:59;101076.28;;;16.45;95.04
80509;BME280;69838;52.602;13.434;2023-06-26T02:04:44;101078.81;;;16.48;95.02
80509;BME280;69838;52.602;13.434;2023-06-26T02:05:29;101074.47;;;16.46;95.07
80509;BME280;69838;52.602;13.434;2023-06-26T02:06:15;101079.03;;;16.45;95.25
80509;BME280;69838;52.602;13.434;2023-06-26T02:07:01;101070.84;;;16.45;95.09
80509;BME280;69838;52.602;13.434;2023-06-26T02:07:46;101079.03;;;16.45;95.29
80509;BME280;69838;52.602;13.434;2023-06-26T02:08:31;101070.84;;;16.45;95.46
80509;BME280;69838;52.602;13.434;2023-06-26T02:09:17;101071.59;;;16.47;95.45
80509;BME280;69838;52.602;13.434;2023-06-26T02:10:03;101070.84;;;16.45;95.37
80509;BME280;69838;52.602;13.434;2023-06-26T02:10:48;101069.88;;;16.46;95.30
80509;BME280;69838;52.602;13.434;2023-06-26T02:11:33;101074.47;;;16.46;95.24
80509;BME280;69838;52.602;13.434;2023-06-26T02:12:19;101070.84;;;16.45;95.27
80509;BME280;69838;52.602;13.434;2023-06-26T02:13:04;101060.72;;;16.47;95.23
80509;BME280;69838;52.602;13.434;2023-06-26T02:13:49;101065.19;;;16.48;95.41
80509;BME280;69838;52.602;13.434;2023-06-26T02:14:34;101073.16;;;16.51;95.45
80509;BME280;69838;52.602;13.434;2023-06-26T02:15:20;101064.00;;;16.52;95.35
80509;BME280;69838;52.602;13.434;2023-06-26T02:16:05;101067.72;;;16.51;95.50
80509;BME280;69838;52.602;13.434;2023-06-26T02:16:50;101068.38;;;16.55;95.52
80509;BME280;69838;52.602;13.434;2023-06-26T02:17:35;101074.69;;;16.55;95.51
80509;BME280;69838;52.602;13.434;2023-06-26T02:18:21;101072.53;;;16.60;95.42
80509;BME280;69838;52.602;13.434;2023-06-26T02:19:07;101065.22;;;16.61;95.25
80509;BME280;69838;52.602;13.434;2023-06-26T02:19:52;101063.38;;;16.61;95.04
80509;BME280;69838;52.602;13.434;2023-06-26T02:20:38;101069.72;;;16.62;95.23
80509;BME280;69838;52.602;13.434;2023-06-26T02:21:24;101070.38;;;16.66;95.26
80509;BME280;69838;52.602;13.434;2023-06-26T02:22:09;101061.44;;;16.64;95.21
80509;BME280;69838;52.602;13.434;2023-06-26T02:22:54;101058.56;;;16.65;95.23
80509;BME280;69838;52.602;13.434;2023-06-26T02:23:40;101066.66;;;16.67;95.32
80509;BME280;69838;52.602;13.434;2023-06-26T02:24:25;101063.91;;;16.67;94.99
80509;BME280;69838;52.602;13.434;2023-06-26T02:25:12;101062.09;;;16.67;94.99
80509;BME280;69838;52.602;13.434;2023-06-26T02:25:57;101058.47;;;16.67;94.96
80509;BME280;69838;52.602;13.434;2023-06-26T02:26:42;101061.00;;;16.70;95.09
80509;BME280;69838;52.602;13.434;2023-06-26T02:27:28;101058.81;;;16.75;95.01
80509;BME280;69838;52.602;13.434;2023-06-26T02:28:13;101065.78;;;16.79;95.29
80509;BME280;69838;52.602;13.434;2023-06-26T02:28:58;101060.13;;;16.82;95.23
80509;BME280;69838;52.602;13.434;2023-06-26T02:29:43;101067.34;;;16.83;94.64
80509;BME280;69838;52.602;13.434;2023-06-26T02:30:29;101066.47;;;16.83;94.69
80509;BME280;69838;52.602;13.434;2023-06-26T02:31:14;101063.84;;;16.81;94.73
80509;BME280;69838;52.602;13.434;2023-06-26T02:31:59;101076.50;;;16.82;94.62
80509;BME280;69838;52.602;13.434;2023-06-26T02:32:44;101063.66;;;16.84;94.42
80509;BME280;69838;52.602;13.434;2023-06-26T02:33:30;101067.16;;;16.86;94.60
80509;BME280;69838;52.602;13.434;2023-06-26T02:34:15;101070.88;;;16.85;94.62
80509;BME280;69838;52.602;13.434;2023-06-26T02:35:01;101072.81;;;16.83;94.70
80509;BME280;69838;52.602;13.434;2023-06-26T02:35:46;101069.28;;;16.81;94.38
80509;BME280;69838;52.602;13.434;2023-06-26T02:36:31;101074.75;;;16.81;94.35
80509;BME280;69838;52.602;13.434;2023-06-26T02:37:17;101069.53;;;16.78;94.58
80509;BME280;69838;52.602;13.434;2023-06-26T02:38:03;101073.22;;;16.77;94.51
80509;BME280;69838;52.602;13.434;2023-06-26T02:38:49;101061.09;;;16.81;94.80
80509;BME280;69838;52.602;13.434;2023-06-26T02:39:34;101071.25;;;16.79;94.86
80509;BME280;69838;52.602;13.434;2023-06-26T02:40:20;101064.63;;;16.83;94.86
80509;BME280;69838;52.602;13.434;2023-06-26T02:41:05;101071.25;;;16.79;94.62
80509;BME280;69838;52.602;13.434;2023-06-26T02:41:50;101070.38;;;16.78;94.53
80509;BME280;69838;52.602;13.434;2023-06-26T02:42:35;101066.00;;;16.76;94.95
80509;BME280;69838;52.602;13.434;2023-06-26T02:43:21;101059.69;;;16.75;94.74
80509;BME280;69838;52.602;13.434;2023-06-26T02:44:06;101066.13;;;16.74;94.61
80509;BME280;69838;52.602;13.434;2023-06-26T02:44:51;101067.97;;;16.74;94.63
80509;BME280;69838;52.602;13.434;2023-06-26T02:45:37;101060.78;;;16.73;94.72
80509;BME280;69838;52.602;13.434;2023-06-26T02:46:22;101057.31;;;16.71;94.62
80509;BME280;69838;52.602;13.434;2023-06-26T02:47:07;101060.13;;;16.69;94.76
80509;BME280;69838;52.602;13.434;2023-06-26T02:47:52;101062.09;;;16.67;94.56
80509;BME280;69838;52.602;13.434;2023-06-26T02:48:38;101064.91;;;16.66;94.57
80509;BME280;69838;52.602;13.434;2023-06-26T02:49:23;101066.88;;;16.64;94.63
80509;BME280;69838;52.602;13.434;2023-06-26T02:50:09;101060.53;;;16.63;94.94
80509;BME280;69838;52.602;13.434;2023-06-26T02:50:54;101061.63;;;16.60;94.69
80509;BME280;69838;52.602;13.434;2023-06-26T02:51:39;101059.66;;;16.63;94.92
80509;BME280;69838;52.602;13.434;2023-06-26T02:52:24;101057.81;;;16.63;95.21
80509;BME280;69838;52.602;13.434;2023-06-26T02:53:10;101062.50;;;16.61;94.99
80509;BME280;69838;52.602;13.434;2023-06-26T02:53:55;101061.53;;;16.62;94.97
80509;BME280;69838;52.602;13.434;2023-06-26T02:54:40;101063.38;;;16.61;94.93
80509;BME280;69838;52.602;13.434;2023-06-26T02:55:27;101056.38;;;16.57;94.91
80509;BME280;69838;52.602;13.434;2023-06-26T02:56:12;101051.94;;;16.56;94.84
80509;BME280;69838;52.602;13.434;2023-06-26T02:56:57;101054.00;;;16.53;94.74
80509;BME280;69838;52.602;13.434;2023-06-26T02:57:42;101058.53;;;16.52;94.77
80509;BME280;69838;52.602;13.434;2023-06-26T02:58:28;101056.06;;;16.49;95.07
80509;BME280;69838;52.602;13.434;2023-06-26T02:59:13;101061.72;;;16.46;95.12
80509;BME280;69838;52.602;13.434;2023-06-26T02:59:58;101066.41;;;16.44;95.23
80509;BME280;69838;52.602;13.434;2023-06-26T03:00:44;101052.09;;;16.40;95.17
80509;BME280;69838;52.602;13.434;2023-06-26T03:01:29;101060.47;;;16.37;95.65
80509;BME280;69838;52.602;13.434;2023-06-26T03:02:14;101054.38;;;16.34;95.62
80509;BME280;69838;52.602;13.434;2023-06-26T03:03:00;101054.56;;;16.31;95.47
80509;BME280;69838;52.602;13.434;2023-06-26T03:03:45;101061.09;;;16.28;95.75
80509;BME280;69838;52.602;13.434;2023-06-26T03:04:32;101050.50;;;16.23;95.66
80509;BME280;69838;52.602;13.434;2023-06-26T03:05:21;101054.31;;;16.21;95.83
80509;BME280;69838;52.602;13.434;2023-06-26T03:06:08;101058.91;;;16.20;96.16
80509;BME280;69838;52.602;13.434;2023-06-26T03:06:54;101054.63;;;16.16;96.11
80509;BME280;69838;52.602;13.434;2023-06-26T03:07:39;101053.84;;;16.14;96.10
80509;BME280;69838;52.602;13.434;2023-06-26T03:08:24;101052.00;;;16.15;96.24
80509;BME280;69838;52.602;13.434;2023-06-26T03:09:10;101049.50;;;16.12;96.57
80509;BME280;69838;52.602;13.434;2023-06-26T03:09:55;101048.59;;;16.11;96.63
80509;BME280;69838;52.602;13.434;2023-06-26T03:10:40;101050.56;;;16.09;96.34
80509;BME280;69838;52.602;13.434;2023-06-26T03:11:26;101046.97;;;16.09;96.58
80509;BME280;69838;52.602;13.434;2023-06-26T03:12:11;101048.94;;;16.07;96.55
80509;BME280;69838;52.602;13.434;2023-06-26T03:12:56;101052.72;;;16.04;96.68
80509;BME280;69838;52.602;13.434;2023-06-26T03:13:41;101049.03;;;16.05;96.54
80509;BME280;69838;52.602;13.434;2023-06-26T03:14:27;101049.03;;;16.05;96.82
80509;BME280;69838;52.602;13.434;2023-06-26T03:15:13;101047.06;;;16.07;96.82
80509;BME280;69838;52.602;13.434;2023-06-26T03:15:58;101053.50;;;16.06;96.73
80509;BME280;69838;52.602;13.434;2023-06-26T03:16:43;101044.44;;;16.06;96.61
80509;BME280;69838;52.602;13.434;2023-06-26T03:17:29;101048.25;;;16.03;96.54
80509;BME280;69838;52.602;13.434;2023-06-26T03:18:14;101041.16;;;16.00;96.51
80509;BME280;69838;52.602;13.434;2023-06-26T03:18:59;101041.72;;;16.06;96.67
80509;BME280;69838;52.602;13.434;2023-06-26T03:19:44;101050.88;;;16.05;96.75
80509;BME280;69838;52.602;13.434;2023-06-26T03:20:30;101045.53;;;16.03;96.45
80509;BME280;69838;52.602;13.434;2023-06-26T03:21:15;101045.75;;;16.00;96.63
80509;BME280;69838;52.602;13.434;2023-06-26T03:22:00;101047.50;;;16.01;96.51
80509;BME280;69838;52.602;13.434;2023-06-26T03:22:45;101044.00;;;15.99;96.71
80509;BME280;69838;52.602;13.434;2023-06-26T03:23:31;101042.34;;;15.96;96.76
80509;BME280;69838;52.602;13.434;2023-06-26T03:24:16;101037.91;;;15.95;96.60
80509;BME280;69838;52.602;13.434;2023-06-26T03:25:02;101047.88;;;15.95;96.70
80509;BME280;69838;52.602;13.434;2023-06-26T03:25:48;101040.72;;;15.94;96.76
80509;BME280;69838;52.602;13.434;2023-06-26T03:26:33;101046.06;;;15.95;96.50
80509;BME280;69838;52.602;13.434;2023-06-26T03:27:19;101043.53;;;15.92;96.44
80509;BME280;69838;52.602;13.434;2023-06-26T03:28:04;101043.53;;;15.92;97.20
80509;BME280;69838;52.602;13.434;2023-06-26T03:28:49;101038.19;;;15.91;96.95
80509;BME280;69838;52.602;13.434;2023-06-26T03:29:35;101035.38;;;15.92;97.12
80509;BME280;69838;52.602;13.434;2023-06-26T03:30:20;101046.34;;;15.91;96.77
80509;BME280;69838;52.602;13.434;2023-06-26T03:31:05;101046.34;;;15.91;96.96
80509;BME280;69838;52.602;13.434;2023-06-26T03:31:51;101045.50;;;15.90;97.07
80509;BME280;69838;52.602;13.434;2023-06-26T03:32:36;101041.00;;;15.89;96.85
80509;BME280;69838;52.602;13.434;2023-06-26T03:33:21;101041.09;;;15.88;97.09
80509;BME280;69838;52.602;13.434;2023-06-26T03:34:06;101040.25;;;15.87;97.18
80509;BME280;69838;52.602;13.434;2023-06-26T03:34:52;101045.69;;;15.87;97.15
80509;BME280;69838;52.602;13.434;2023-06-26T03:35:38;101037.63;;;15.86;97.09
80509;BME280;69838;52.602;13.434;2023-06-26T03:36:23;101036.44;;;15.90;97.39
80509;BME280;69838;52.602;13.434;2023-06-26T03:37:08;101041.09;;;15.88;97.23
80509;BME280;69838;52.602;13.434;2023-06-26T03:37:53;101035.66;;;15.88;97.17
80509;BME280;69838;52.602;13.434;2023-06-26T03:38:39;101041.09;;;15.88;97.17
80509;BME280;69838;52.602;13.434;2023-06-26T03:39:24;101033.94;;;15.87;97.27
80509;BME280;69838;52.602;13.434;2023-06-26T03:40:10;101033.94;;;15.87;97.22
80509;BME280;69838;52.602;13.434;2023-06-26T03:40:55;101034.78;;;15.87;97.12
80509;BME280;69838;52.602;13.434;2023-06-26T03:41:40;101037.63;;;15.86;97.15
80509;BME280;69838;52.602;13.434;2023-06-26T03:42:26;101030.31;;;15.86;97.35
80509;BME280;69838;52.602;13.434;2023-06-26T03:43:11;101040.34;;;15.86;97.36
80509;BME280;69838;52.602;13.434;2023-06-26T03:43:56;101028.69;;;15.83;97.75
80509;BME280;69838;52.602;13.434;2023-06-26T03:44:41;101029.34;;;15.87;97.69
80509;BME280;69838;52.602;13.434;2023-06-26T03:45:27;101030.97;;;15.90;97.63
80509;BME280;69838;52.602;13.434;2023-06-26T03:46:12;101036.44;;;15.90;97.50
80509;BME280;69838;52.602;13.434;2023-06-26T03:46:57;101037.31;;;15.90;97.57
80509;BME280;69838;52.602;13.434;2023-06-26T03:47:42;101030.03;;;15.91;97.46
80509;BME280;69838;52.602;13.434;2023-06-26T03:48:28;101032.75;;;15.91;97.53
80509;BME280;69838;52.602;13.434;2023-06-26T03:49:13;101031.78;;;15.92;97.63
80509;BME280;69838;52.602;13.434;2023-06-26T03:49:58;101035.28;;;15.94;97.53
80509;BME280;69838;52.602;13.434;2023-06-26T03:50:44;101028.06;;;15.93;97.74
80509;BME280;69838;52.602;13.434;2023-06-26T03:51:29;101030.59;;;15.96;97.60
80509;BME280;69838;52.602;13.434;2023-06-26T03:52:15;101031.16;;;16.01;98.19
80509;BME280;69838;52.602;13.434;2023-06-26T03:53:00;101029.00;;;16.06;98.25
80509;BME280;69838;52.602;13.434;2023-06-26T03:53:45;101032.50;;;16.08;98.12
80509;BME280;69838;52.602;13.434;2023-06-26T03:54:30;101033.06;;;16.13;97.91
80509;BME280;69838;52.602;13.434;2023-06-26T03:55:18;101028.16;;;16.18;97.90
80509;BME280;69838;52.602;13.434;2023-06-26T03:56:04;101034.50;;;16.19;97.66
80509;BME280;69838;52.602;13.434;2023-06-26T03:56:49;101037.13;;;16.20;97.44
80509;BME280;69838;52.602;13.434;2023-06-26T03:57:34;101033.41;;;16.21;97.70
80509;BME280;69838;52.602;13.434;2023-06-26T03:58:19;101037.78;;;16.24;97.35
80509;BME280;69838;52.602;13.434;2023-06-26T03:59:05;101030.38;;;16.26;97.14
80509;BME280;69838;52.602;13.434;2023-06-26T03:59:51;101033.88;;;16.28;97.33